Time;durP1;ratioP1;P1;durP2;ratioP2;P2;SDS_P1;SDS_P2;PMS_P1;PMS_P2;Temp;Humidity;BMP_temperature;BMP_pressure;BME280_temperature;BME280_humidity;BME280_pressure;Samples;Min_cycle;Max_cycle;Signal;HPM_P1;HPM_P2
2022/05/05 00:02:04;;;;;;;9.87;8.30;;;;;;;;;;6395852;22;20960;-51
2022/05/05 00:04:37;;;;;;;9.27;8.30;;;;;;;;;;6393711;22;20389;-52
2022/05/05 00:07:03;;;;;;;10.30;8.67;;;;;;;;;;6368801;22;20918;-50
2022/05/05 00:09:29;;;;;;;8.80;8.03;;;;;;;;;;6368241;22;20375;-52
2022/05/05 00:15:13;;;;;;;10.03;8.40;;;;;;;;;;6401813;22;20375;-51
2022/05/05 00:17:42;;;;;;;10.60;9.50;;;;;;;;;;6394672;22;20985;-55
2022/05/05 00:20:09;;;;;;;10.57;8.80;;;;;;;;;;6346133;22;20799;-52
2022/05/05 00:22:35;;;;;;;15.87;10.43;;;;;;;;;;6390988;22;20420;-51
2022/05/05 00:25:01;;;;;;;16.93;10.87;;;;;;;;;;6399002;22;20387;-51
2022/05/05 00:27:28;;;;;;;14.53;11.07;;;;;;;;;;6394123;22;21275;-52
2022/05/05 00:29:54;;;;;;;12.67;9.07;;;;;;;;;;6392815;22;20709;-49
2022/05/05 00:32:41;;;;;;;10.30;9.20;;;;;;;;;;6393057;22;20452;-52
2022/05/05 00:35:16;;;;;;;9.80;8.80;;;;;;;;;;6372206;22;20393;-51
2022/05/05 00:37:42;;;;;;;17.50;10.40;;;;;;;;;;6382679;22;20365;-50
2022/05/05 00:40:08;;;;;;;9.70;8.37;;;;;;;;;;6390660;22;20362;-53
2022/05/05 00:42:35;;;;;;;14.23;9.27;;;;;;;;;;6384111;22;20436;-51
2022/05/05 00:45:02;;;;;;;14.37;10.90;;;;;;;;;;6363353;22;20372;-50
2022/05/05 00:47:43;;;;;;;16.33;11.00;;;;;;;;;;6385410;22;20743;-50
2022/05/05 00:50:09;;;;;;;23.43;12.27;;;;;;;;;;6365369;22;21121;-51
2022/05/05 00:52:57;;;;;;;17.47;11.13;;;;;;;;;;6386985;22;20361;-53
2022/05/05 00:55:23;;;;;;;17.20;12.60;;;;;;;;;;6392031;22;20483;-52
2022/05/05 00:57:49;;;;;;;13.03;10.37;;;;;;;;;;6382736;22;20411;-52
2022/05/05 01:00:15;;;;;;;12.83;10.03;;;;;;;;;;6389259;22;20354;-50
2022/05/05 01:03:04;;;;;;;14.03;8.63;;;;;;;;;;6392117;22;20449;-55
2022/05/05 01:05:32;;;;;;;13.70;8.93;;;;;;;;;;6389955;22;20372;-51
2022/05/05 01:07:58;;;;;;;10.37;8.13;;;;;;;;;;6362867;22;20373;-51
2022/05/05 01:10:30;;;;;;;14.40;9.67;;;;;;;;;;6391902;22;20492;-52
2022/05/05 01:12:56;;;;;;;8.57;7.77;;;;;;;;;;6346924;22;20377;-53
2022/05/05 01:15:24;;;;;;;10.20;8.13;;;;;;;;;;6363259;22;20941;-52
2022/05/05 01:17:50;;;;;;;9.40;7.50;;;;;;;;;;6355447;22;20411;-54
2022/05/05 01:20:19;;;;;;;9.37;7.30;;;;;;;;;;6395442;22;20929;-53
2022/05/05 01:22:52;;;;;;;9.77;8.33;;;;;;;;;;6369014;22;20429;-53
2022/05/05 01:28:18;;;;;;;9.67;7.97;;;;;;;;;;6377586;22;20388;-53
2022/05/05 01:33:58;;;;;;;7.77;6.97;;;;;;;;;;6386890;22;20571;-53
2022/05/05 01:36:37;;;;;;;7.83;7.03;;;;;;;;;;6372583;22;20366;-49
2022/05/05 01:39:15;;;;;;;8.07;7.20;;;;;;;;;;6390743;22;20373;-51
2022/05/05 01:41:44;;;;;;;8.07;7.20;;;;;;;;;;6357845;22;20474;-51
2022/05/05 01:44:12;;;;;;;9.40;7.17;;;;;;;;;;6361855;22;20374;-52
2022/05/05 01:46:56;;;;;;;9.10;7.03;;;;;;;;;;6390051;22;20486;-53
2022/05/05 01:49:25;;;;;;;7.33;5.97;;;;;;;;;;6387599;22;20376;-54
2022/05/05 01:52:05;;;;;;;7.80;5.70;;;;;;;;;;6390739;22;20473;-53
2022/05/05 01:54:33;;;;;;;7.10;6.40;;;;;;;;;;6386726;22;20386;-52
2022/05/05 01:57:00;;;;;;;10.83;8.13;;;;;;;;;;6383977;22;20365;-55
2022/05/05 01:59:28;;;;;;;7.03;6.37;;;;;;;;;;6363353;22;20431;-50
2022/05/05 02:02:19;;;;;;;7.80;6.77;;;;;;;;;;6362715;22;20444;-52
2022/05/05 02:04:57;;;;;;;7.33;6.60;;;;;;;;;;6387579;22;20441;-54
2022/05/05 02:07:25;;;;;;;6.37;5.83;;;;;;;;;;6376420;22;20354;-51
2022/05/05 02:09:51;;;;;;;7.47;6.70;;;;;;;;;;6389845;22;20375;-51
2022/05/05 02:12:18;;;;;;;6.93;6.20;;;;;;;;;;6356537;22;20405;-53
2022/05/05 02:14:45;;;;;;;7.53;6.83;;;;;;;;;;6387499;22;20362;-53
2022/05/05 02:17:11;;;;;;;7.43;6.73;;;;;;;;;;6383056;22;20704;-49
2022/05/05 02:19:39;;;;;;;7.87;7.07;;;;;;;;;;6363683;22;20426;-53
2022/05/05 02:22:06;;;;;;;7.53;6.83;;;;;;;;;;6354377;22;20440;-51
2022/05/05 02:24:32;;;;;;;7.30;6.60;;;;;;;;;;6386899;22;20366;-53
2022/05/05 02:26:59;;;;;;;8.60;7.70;;;;;;;;;;6376833;22;20748;-50
2022/05/05 02:29:25;;;;;;;7.97;7.13;;;;;;;;;;6391387;22;20365;-51
2022/05/05 02:31:51;;;;;;;6.93;6.23;;;;;;;;;;6384082;22;20398;-51
2022/05/05 02:34:17;;;;;;;7.50;6.20;;;;;;;;;;6389480;22;20172;-51
2022/05/05 02:40:00;;;;;;;8.77;6.70;;;;;;;;;;6343216;22;20369;-53
2022/05/05 02:42:27;;;;;;;7.40;6.53;;;;;;;;;;6386499;22;20421;-53
2022/05/05 02:44:53;;;;;;;8.83;7.20;;;;;;;;;;6388448;22;20362;-52
2022/05/05 02:47:19;;;;;;;10.03;7.70;;;;;;;;;;6386847;22;20874;-53
2022/05/05 02:49:46;;;;;;;7.10;6.37;;;;;;;;;;6392716;22;20362;-53
2022/05/05 02:52:12;;;;;;;8.03;7.33;;;;;;;;;;6334780;22;20377;-52
2022/05/05 02:54:47;;;;;;;7.10;6.40;;;;;;;;;;6390439;22;20730;-53
2022/05/05 02:57:22;;;;;;;7.73;7.00;;;;;;;;;;6388192;22;20386;-52
2022/05/05 02:59:48;;;;;;;7.33;6.20;;;;;;;;;;6391361;22;20378;-52
2022/05/05 03:02:16;;;;;;;6.73;5.77;;;;;;;;;;6380370;22;20432;-52
2022/05/05 03:04:42;;;;;;;7.03;6.33;;;;;;;;;;6389383;22;20401;-51
2022/05/05 03:07:30;;;;;;;8.13;7.20;;;;;;;;;;6394371;22;20715;-53
2022/05/05 03:09:57;;;;;;;10.30;7.53;;;;;;;;;;6355666;22;20392;-52
2022/05/05 03:12:31;;;;;;;8.23;7.50;;;;;;;;;;6389622;22;20373;-54
2022/05/05 03:15:17;;;;;;;8.63;6.40;;;;;;;;;;6361360;22;20366;-53
2022/05/05 03:17:44;;;;;;;8.10;7.30;;;;;;;;;;6385587;22;20387;-52
2022/05/05 03:20:10;;;;;;;8.10;6.37;;;;;;;;;;6385688;22;20442;-52
2022/05/05 03:22:36;;;;;;;7.47;6.63;;;;;;;;;;6380733;22;20433;-51
2022/05/05 03:25:02;;;;;;;9.73;8.20;;;;;;;;;;6387141;22;20374;-50
2022/05/05 03:27:28;;;;;;;7.90;7.10;;;;;;;;;;6364617;22;20353;-49
2022/05/05 03:29:54;;;;;;;7.97;7.03;;;;;;;;;;6374862;22;20848;-51
2022/05/05 03:32:28;;;;;;;7.20;6.50;;;;;;;;;;6391631;22;20376;-54
2022/05/05 03:35:03;;;;;;;8.23;6.93;;;;;;;;;;6386953;22;20396;-53
2022/05/05 03:40:17;;;;;;;7.03;6.30;;;;;;;;;;6393068;22;20400;-52
2022/05/05 03:42:50;;;;;;;7.67;6.73;;;;;;;;;;6364104;22;20865;-52
2022/05/05 03:45:17;;;;;;;7.30;6.30;;;;;;;;;;6365192;22;20409;-52
2022/05/05 03:47:54;;;;;;;7.80;6.77;;;;;;;;;;6362043;22;20377;-52
2022/05/05 03:50:32;;;;;;;8.07;6.80;;;;;;;;;;6354270;22;20581;-52
2022/05/05 03:53:10;;;;;;;7.70;6.20;;;;;;;;;;6351488;22;20873;-52
2022/05/05 03:55:36;;;;;;;7.00;6.27;;;;;;;;;;6392066;22;20382;-49
2022/05/05 03:58:04;;;;;;;7.17;6.27;;;;;;;;;;6360131;22;20354;-53
2022/05/05 04:00:30;;;;;;;8.40;7.40;;;;;;;;;;6362620;22;20373;-51
2022/05/05 04:05:52;;;;;;;7.10;6.40;;;;;;;;;;6393800;22;20399;-51
2022/05/05 04:08:18;;;;;;;7.60;6.90;;;;;;;;;;6385759;22;20362;-51
2022/05/05 04:10:44;;;;;;;7.80;6.40;;;;;;;;;;6393716;22;20488;-52
2022/05/05 04:13:32;;;;;;;7.87;7.07;;;;;;;;;;6395578;22;20427;-53
2022/05/05 04:16:09;;;;;;;9.20;7.43;;;;;;;;;;6390467;22;20903;-52
2022/05/05 04:18:35;;;;;;;8.00;7.20;;;;;;;;;;6391017;22;20434;-52
2022/05/05 04:21:01;;;;;;;7.50;6.50;;;;;;;;;;6393585;22;20376;-51
2022/05/05 04:23:27;;;;;;;8.10;6.73;;;;;;;;;;6351643;22;20440;-51
2022/05/05 04:25:53;;;;;;;8.50;7.00;;;;;;;;;;6393941;22;20697;-51
2022/05/05 04:28:19;;;;;;;8.37;7.57;;;;;;;;;;6387945;22;20581;-51
2022/05/05 04:30:45;;;;;;;9.73;6.73;;;;;;;;;;6393972;22;20369;-52
2022/05/05 04:33:12;;;;;;;7.90;6.47;;;;;;;;;;6382228;22;20377;-51
2022/05/05 04:35:38;;;;;;;7.67;6.87;;;;;;;;;;6389650;22;20382;-50
2022/05/05 04:38:23;;;;;;;7.43;6.57;;;;;;;;;;6368354;22;20453;-52
2022/05/05 04:40:57;;;;;;;7.47;6.20;;;;;;;;;;6338368;22;20383;-52
2022/05/05 04:43:23;;;;;;;8.07;6.90;;;;;;;;;;6241350;22;20512;-52
2022/05/05 04:45:49;;;;;;;7.43;6.13;;;;;;;;;;6259252;22;20377;-51
2022/05/05 04:48:15;;;;;;;8.23;6.43;;;;;;;;;;6243458;22;20443;-52
2022/05/05 04:50:41;;;;;;;9.50;7.00;;;;;;;;;;6264378;22;20931;-50
2022/05/05 04:53:07;;;;;;;8.47;7.60;;;;;;;;;;6242809;22;20377;-52
2022/05/05 04:55:33;;;;;;;8.70;7.30;;;;;;;;;;6265577;22;20408;-51
2022/05/05 04:57:59;;;;;;;9.67;7.70;;;;;;;;;;6247054;22;20396;-52
2022/05/05 05:00:25;;;;;;;8.37;7.13;;;;;;;;;;6261977;22;20377;-51
2022/05/05 05:02:51;;;;;;;8.17;7.40;;;;;;;;;;6238666;22;21178;-52
2022/05/05 05:05:17;;;;;;;7.37;6.53;;;;;;;;;;6264003;22;20440;-51
2022/05/05 05:07:43;;;;;;;8.73;6.90;;;;;;;;;;6256453;22;20405;-51
2022/05/05 05:10:10;;;;;;;8.57;7.70;;;;;;;;;;6241835;22;20376;-53
2022/05/05 05:12:36;;;;;;;8.47;7.47;;;;;;;;;;6266521;22;20378;-52
2022/05/05 05:15:02;;;;;;;8.10;7.30;;;;;;;;;;6241005;22;20369;-51
2022/05/05 05:17:28;;;;;;;8.97;7.70;;;;;;;;;;6266890;22;20415;-50
2022/05/05 05:20:05;;;;;;;7.97;7.00;;;;;;;;;;6249814;22;20369;-52
2022/05/05 05:22:31;;;;;;;8.10;6.73;;;;;;;;;;6256902;22;20428;-52
2022/05/05 05:24:58;;;;;;;11.93;6.80;;;;;;;;;;6246471;22;20438;-51
2022/05/05 05:27:24;;;;;;;8.23;7.17;;;;;;;;;;6264549;22;20388;-51
2022/05/05 05:29:51;;;;;;;8.50;7.63;;;;;;;;;;6256415;22;20354;-51
2022/05/05 05:32:17;;;;;;;8.10;7.30;;;;;;;;;;6259229;22;20461;-52
2022/05/05 05:35:05;;;;;;;8.07;7.27;;;;;;;;;;6254138;22;20870;-53
2022/05/05 05:37:31;;;;;;;7.43;6.63;;;;;;;;;;6247368;22;20373;-51
2022/05/05 05:39:59;;;;;;;8.63;6.80;;;;;;;;;;6235754;22;20419;-51
2022/05/05 05:42:25;;;;;;;8.47;7.63;;;;;;;;;;6259832;22;20516;-51
2022/05/05 05:44:52;;;;;;;6.77;6.17;;;;;;;;;;6246325;22;20366;-52
2022/05/05 05:47:18;;;;;;;7.83;7.03;;;;;;;;;;6256330;22;20373;-51
2022/05/05 05:52:47;;;;;;;10.97;8.27;;;;;;;;;;6250779;22;20372;-48
2022/05/05 05:55:17;;;;;;;8.93;7.57;;;;;;;;;;6251551;22;21112;-52
2022/05/05 05:57:43;;;;;;;10.07;8.73;;;;;;;;;;6268141;22;20499;-51
2022/05/05 06:00:09;;;;;;;7.97;7.00;;;;;;;;;;6249131;22;20434;-52
2022/05/05 06:05:45;;;;;;;13.17;8.27;;;;;;;;;;6257205;22;20500;-53
2022/05/05 06:08:15;;;;;;;8.73;7.83;;;;;;;;;;6269941;22;20384;-51
2022/05/05 06:10:44;;;;;;;9.53;8.20;;;;;;;;;;6265657;22;20385;-51
2022/05/05 06:13:10;;;;;;;9.80;8.70;;;;;;;;;;6269836;22;20464;-56
2022/05/05 06:15:43;;;;;;;9.70;8.53;;;;;;;;;;6257939;22;20358;-51
2022/05/05 06:18:12;;;;;;;13.00;9.53;;;;;;;;;;6268992;22;20390;-52
2022/05/05 06:23:42;;;;;;;11.90;8.90;;;;;;;;;;6249007;22;20775;-53
2022/05/05 06:26:27;;;;;;;9.50;8.37;;;;;;;;;;6258167;22;20385;-51
2022/05/05 06:28:53;;;;;;;9.90;8.87;;;;;;;;;;6269196;22;20913;-51
2022/05/05 06:31:19;;;;;;;9.60;8.60;;;;;;;;;;6266556;22;20562;-51
2022/05/05 06:33:46;;;;;;;10.73;7.77;;;;;;;;;;6271561;22;20395;-50
2022/05/05 06:36:12;;;;;;;8.23;7.30;;;;;;;;;;6249998;22;20439;-51
2022/05/05 06:38:39;;;;;;;8.77;7.97;;;;;;;;;;6271288;22;20358;-50
2022/05/05 06:41:05;;;;;;;9.53;8.53;;;;;;;;;;6251599;22;20443;-52
2022/05/05 06:43:39;;;;;;;10.47;8.60;;;;;;;;;;6259459;22;20733;-52
2022/05/05 06:46:07;;;;;;;9.97;8.50;;;;;;;;;;6269817;22;20410;-51
2022/05/05 06:48:33;;;;;;;10.30;7.97;;;;;;;;;;6236573;22;20362;-52
2022/05/05 06:50:59;;;;;;;9.30;8.07;;;;;;;;;;6270113;22;20677;-50
2022/05/05 06:53:25;;;;;;;8.63;7.80;;;;;;;;;;6255841;22;20934;-51
2022/05/05 06:55:55;;;;;;;9.73;8.60;;;;;;;;;;6268094;22;20377;-52
2022/05/05 06:58:21;;;;;;;11.43;8.20;;;;;;;;;;6258663;22;20369;-52
2022/05/05 07:03:38;;;;;;;11.30;8.70;;;;;;;;;;6253638;22;20826;-52
2022/05/05 07:06:05;;;;;;;14.70;9.53;;;;;;;;;;6273021;22;20380;-53
2022/05/05 07:11:37;;;;;;;14.50;8.43;;;;;;;;;;6272944;22;20396;-52
2022/05/05 07:14:03;;;;;;;10.83;8.63;;;;;;;;;;6257677;22;20449;-52
2022/05/05 07:16:29;;;;;;;9.43;7.73;;;;;;;;;;6271452;22;20366;-53
2022/05/05 07:18:55;;;;;;;9.27;8.37;;;;;;;;;;6260031;22;20460;-52
2022/05/05 07:21:22;;;;;;;11.83;8.53;;;;;;;;;;6271823;22;20860;-53
2022/05/05 07:26:52;;;;;;;9.90;7.63;;;;;;;;;;6252153;22;20371;-52
2022/05/05 07:29:18;;;;;;;9.80;8.83;;;;;;;;;;6258513;22;20396;-52
2022/05/05 07:31:44;;;;;;;13.03;9.07;;;;;;;;;;6273060;22;20369;-52
2022/05/05 07:34:12;;;;;;;9.70;8.03;;;;;;;;;;6247793;22;20416;-51
2022/05/05 07:36:37;;;;;;;10.60;8.67;;;;;;;;;;6269096;22;20369;-51
2022/05/05 07:39:25;;;;;;;14.40;9.07;;;;;;;;;;6262336;22;20412;-51
2022/05/05 07:41:51;;;;;;;8.70;7.83;;;;;;;;;;6269344;22;20520;-52
2022/05/05 07:44:17;;;;;;;10.50;8.87;;;;;;;;;;6255746;22;20882;-51
2022/05/05 07:46:43;;;;;;;13.40;9.50;;;;;;;;;;6272979;22;20897;-51
2022/05/05 07:49:09;;;;;;;11.10;9.87;;;;;;;;;;6248161;22;20370;-51
2022/05/05 07:51:35;;;;;;;11.20;9.80;;;;;;;;;;6260534;22;20396;-52
2022/05/05 07:54:39;;;;;;;11.30;9.30;;;;;;;;;;6235903;22;20373;-51
2022/05/05 07:57:09;;;;;;;10.93;9.37;;;;;;;;;;6267626;22;20394;-52
2022/05/05 07:59:35;;;;;;;13.10;9.47;;;;;;;;;;6251415;22;20373;-51
2022/05/05 08:02:03;;;;;;;13.10;9.50;;;;;;;;;;6268782;22;20433;-53
2022/05/05 08:04:29;;;;;;;10.33;9.33;;;;;;;;;;6254836;22;20427;-52
2022/05/05 08:06:55;;;;;;;11.87;9.27;;;;;;;;;;6272012;22;20492;-52
2022/05/05 08:09:51;;;;;;;11.10;8.83;;;;;;;;;;6265529;22;20373;-54
2022/05/05 08:12:17;;;;;;;13.13;10.53;;;;;;;;;;6272015;22;20377;-50
2022/05/05 08:14:43;;;;;;;12.77;10.40;;;;;;;;;;6255035;22;20369;-53
2022/05/05 08:17:09;;;;;;;12.00;9.80;;;;;;;;;;6269107;22;20430;-52
2022/05/05 08:19:35;;;;;;;14.07;10.87;;;;;;;;;;6257942;22;20357;-53
2022/05/05 08:22:02;;;;;;;11.80;10.57;;;;;;;;;;6269204;22;20496;-53
2022/05/05 08:30:32;;;;;;;13.30;11.10;;;;;;;;;;6268980;22;20381;-52
2022/05/05 08:33:03;;;;;;;13.90;10.30;;;;;;;;;;6255399;22;20929;-52
2022/05/05 08:35:29;;;;;;;11.00;9.90;;;;;;;;;;6264118;22;20385;-52
2022/05/05 08:38:17;;;;;;;13.57;10.33;;;;;;;;;;6262356;22;20392;-52
2022/05/05 08:40:43;;;;;;;11.50;10.00;;;;;;;;;;6270326;22;20738;-52
2022/05/05 08:43:09;;;;;;;12.67;11.37;;;;;;;;;;6250050;22;20421;-54
2022/05/05 08:45:35;;;;;;;12.57;10.20;;;;;;;;;;6269324;22;20369;-52
2022/05/05 08:48:03;;;;;;;17.10;12.70;;;;;;;;;;6252345;22;20385;-53
2022/05/05 08:50:32;;;;;;;13.33;10.67;;;;;;;;;;6268940;22;20947;-53
2022/05/05 08:52:58;;;;;;;15.27;11.60;;;;;;;;;;6232592;22;20392;-54
2022/05/05 08:55:25;;;;;;;16.27;13.70;;;;;;;;;;6269634;22;20403;-53
2022/05/05 08:58:20;;;;;;;14.30;12.87;;;;;;;;;;6263540;22;20373;-52
2022/05/05 09:00:53;;;;;;;14.17;12.70;;;;;;;;;;6268664;22;20392;-52
2022/05/05 09:03:43;;;;;;;13.90;11.40;;;;;;;;;;6262669;22;20871;-51
2022/05/05 09:06:09;;;;;;;19.73;11.80;;;;;;;;;;6270650;22;20765;-53
2022/05/05 09:08:55;;;;;;;19.50;14.77;;;;;;;;;;6262341;22;20775;-53
2022/05/05 09:11:23;;;;;;;21.57;14.43;;;;;;;;;;6268557;22;20397;-52
2022/05/05 09:14:12;;;;;;;14.80;13.40;;;;;;;;;;6263393;22;20560;-53
2022/05/05 09:16:41;;;;;;;15.20;13.70;;;;;;;;;;6269741;22;20801;-53
2022/05/05 09:19:10;;;;;;;15.20;13.57;;;;;;;;;;6263609;22;20396;-52
2022/05/05 09:21:38;;;;;;;18.23;13.93;;;;;;;;;;6271921;22;20641;-51
2022/05/05 09:26:55;;;;;;;17.50;15.80;;;;;;;;;;6269422;22;20409;-52
2022/05/05 09:30:01;;;;;;;19.13;15.97;;;;;;;;;;6263321;22;20381;-53
2022/05/05 09:32:32;;;;;;;13.83;12.40;;;;;;;;;;6268897;22;20408;-52
2022/05/05 09:35:02;;;;;;;17.50;13.20;;;;;;;;;;6262626;22;20376;-53
2022/05/05 09:37:29;;;;;;;15.27;13.67;;;;;;;;;;6270617;22;20380;-53
2022/05/05 09:39:56;;;;;;;20.00;14.70;;;;;;;;;;6256999;22;20444;-53
2022/05/05 09:42:34;;;;;;;17.17;14.50;;;;;;;;;;6269234;22;20742;-51
2022/05/05 09:45:11;;;;;;;13.93;12.50;;;;;;;;;;6253490;22;20393;-52
2022/05/05 09:47:37;;;;;;;16.07;14.43;;;;;;;;;;6243841;22;20468;-52
2022/05/05 09:50:12;;;;;;;16.17;14.50;;;;;;;;;;6254476;22;20828;-52
2022/05/05 09:58:34;;;;;;;19.97;15.50;;;;;;;;;;6269864;22;20403;-51
2022/05/05 10:01:37;;;;;;;15.90;14.30;;;;;;;;;;6260508;22;20708;-51
2022/05/05 10:04:05;;;;;;;17.90;15.30;;;;;;;;;;6268161;22;20397;-52
2022/05/05 10:06:41;;;;;;;16.17;14.50;;;;;;;;;;6243200;22;20390;-53
2022/05/05 10:09:07;;;;;;;14.90;13.30;;;;;;;;;;6249549;22;20476;-53
2022/05/05 10:11:34;;;;;;;17.73;14.77;;;;;;;;;;6260760;22;20405;-51
2022/05/05 10:14:01;;;;;;;15.97;14.47;;;;;;;;;;6260461;22;20385;-50
2022/05/05 10:16:27;;;;;;;19.03;15.13;;;;;;;;;;6257010;22;20373;-49
2022/05/05 10:22:09;;;;;;;16.73;14.93;;;;;;;;;;6273827;22;20815;-52
2022/05/05 10:24:45;;;;;;;22.63;15.93;;;;;;;;;;6243999;22;20388;-51
2022/05/05 10:27:11;;;;;;;17.83;15.70;;;;;;;;;;6263143;22;20518;-51
2022/05/05 10:29:41;;;;;;;16.80;14.57;;;;;;;;;;6245059;22;21234;-52
2022/05/05 10:32:16;;;;;;;16.80;15.10;;;;;;;;;;6267130;22;20420;-51
2022/05/05 10:34:45;;;;;;;19.23;16.83;;;;;;;;;;6240784;22;20390;-51
2022/05/05 10:40:04;;;;;;;15.63;14.03;;;;;;;;;;6256845;22;20437;-52
2022/05/05 10:42:31;;;;;;;16.83;15.13;;;;;;;;;;6262029;22;20435;-52
2022/05/05 10:45:23;;;;;;;17.90;16.00;;;;;;;;;;6255959;22;20395;-51
2022/05/05 10:47:52;;;;;;;17.80;16.10;;;;;;;;;;6255872;22;20385;-52
2022/05/05 10:50:30;;;;;;;17.13;15.37;;;;;;;;;;6267491;22;20844;-51
2022/05/05 10:52:59;;;;;;;20.13;17.30;;;;;;;;;;6250556;22;20563;-55
2022/05/05 10:55:26;;;;;;;19.80;17.70;;;;;;;;;;6271508;22;20374;-53
2022/05/05 10:57:53;;;;;;;18.87;16.50;;;;;;;;;;6257258;22;20384;-52
2022/05/05 11:00:19;;;;;;;20.40;16.87;;;;;;;;;;6267006;22;20382;-50
2022/05/05 11:03:05;;;;;;;19.47;17.50;;;;;;;;;;6259789;22;20429;-54
2022/05/05 11:05:38;;;;;;;16.03;14.40;;;;;;;;;;6264265;22;20377;-53
2022/05/05 11:08:14;;;;;;;17.97;16.17;;;;;;;;;;6244527;22;20754;-51
2022/05/05 11:13:42;;;;;;;18.63;16.13;;;;;;;;;;6233499;22;20389;-50
2022/05/05 11:22:04;;;;;;;20.27;16.33;;;;;;;;;;6268295;22;20491;-51
2022/05/05 11:24:30;;;;;;;18.73;16.83;;;;;;;;;;6242617;22;20493;-54
2022/05/05 11:26:56;;;;;;;23.30;17.80;;;;;;;;;;6265086;22;20409;-54
2022/05/05 11:29:22;;;;;;;19.27;17.20;;;;;;;;;;6262554;22;20382;-52
2022/05/05 11:31:58;;;;;;;21.40;17.50;;;;;;;;;;6268497;22;20381;-53
2022/05/05 11:34:31;;;;;;;19.73;17.30;;;;;;;;;;6264085;22;20158;-54
2022/05/05 11:37:03;;;;;;;19.30;16.10;;;;;;;;;;6242565;22;20417;-54
2022/05/05 11:39:57;;;;;;;22.27;18.80;;;;;;;;;;6261046;22;20728;-53
2022/05/05 11:42:24;;;;;;;26.20;18.93;;;;;;;;;;6268294;22;20459;-55
2022/05/05 11:44:51;;;;;;;24.37;17.60;;;;;;;;;;6251704;22;20377;-54
2022/05/05 11:47:52;;;;;;;25.30;21.03;;;;;;;;;;6268428;22;20465;-54
2022/05/05 11:50:31;;;;;;;23.70;20.87;;;;;;;;;;6263995;22;21258;-54
2022/05/05 11:52:58;;;;;;;22.57;20.17;;;;;;;;;;6264124;22;20385;-53
2022/05/05 11:55:24;;;;;;;27.07;21.63;;;;;;;;;;6268908;22;20467;-54
2022/05/05 12:04:15;;;;;;;29.23;21.37;;;;;;;;;;6253950;22;20389;-54
2022/05/05 12:06:44;;;;;;;27.77;20.33;;;;;;;;;;6262441;22;20373;-52
2022/05/05 12:09:10;;;;;;;27.77;22.50;;;;;;;;;;6267776;22;20377;-53
2022/05/05 12:11:36;;;;;;;26.13;22.10;;;;;;;;;;6259748;22;20377;-51
2022/05/05 12:14:05;;;;;;;30.43;22.47;;;;;;;;;;6271237;22;20377;-53
2022/05/05 12:16:34;;;;;;;26.73;22.10;;;;;;;;;;6255945;22;20440;-51
2022/05/05 12:19:00;;;;;;;31.80;23.40;;;;;;;;;;6262513;22;20377;-53
2022/05/05 12:21:27;;;;;;;33.43;24.90;;;;;;;;;;6270845;22;20376;-53
2022/05/05 12:23:57;;;;;;;42.40;23.60;;;;;;;;;;6265837;22;20405;-53
2022/05/05 12:26:27;;;;;;;30.17;23.70;;;;;;;;;;6269804;22;20380;-50
2022/05/05 12:28:53;;;;;;;31.53;23.20;;;;;;;;;;6247305;22;20373;-52
2022/05/05 12:31:29;;;;;;;29.53;23.70;;;;;;;;;;6270483;22;20393;-54
2022/05/05 12:34:25;;;;;;;31.87;23.83;;;;;;;;;;6255094;22;20410;-53
2022/05/05 12:37:06;;;;;;;26.80;21.40;;;;;;;;;;6257303;22;20472;-52
2022/05/05 12:39:33;;;;;;;32.90;23.90;;;;;;;;;;6267211;22;20371;-51
2022/05/05 12:42:17;;;;;;;30.47;23.30;;;;;;;;;;6267776;22;20413;-52
2022/05/05 12:44:49;;;;;;;25.63;18.90;;;;;;;;;;6258439;22;20508;-51
2022/05/05 12:47:15;;;;;;;28.13;22.07;;;;;;;;;;6272677;22;20358;-48
2022/05/05 12:49:45;;;;;;;23.70;20.27;;;;;;;;;;6258159;22;20374;-49
2022/05/05 12:59:36;;;;;;;27.73;20.20;;;;;;;;;;6269014;22;20365;-51
2022/05/05 13:00:35;;;;;;;25.90;18.00;;;;;;;;;;6268423;22;20470;-52
2022/05/05 13:03:07;;;;;;;24.87;20.33;;;;;;;;;;6264811;22;20424;-53
2022/05/05 13:05:36;;;;;;;28.87;19.13;;;;;;;;;;6267141;22;20154;-53
2022/05/05 13:08:02;;;;;;;30.07;21.13;;;;;;;;;;6258591;22;20426;-54
2022/05/05 13:10:29;;;;;;;25.83;19.50;;;;;;;;;;6263284;22;20369;-51
2022/05/05 13:13:18;;;;;;;26.20;20.23;;;;;;;;;;6270134;22;20373;-52
2022/05/05 13:15:44;;;;;;;30.43;22.10;;;;;;;;;;6245315;22;20396;-51
2022/05/05 13:18:10;;;;;;;24.27;18.83;;;;;;;;;;6271993;22;20373;-51
2022/05/05 13:20:36;;;;;;;29.00;19.83;;;;;;;;;;6256502;22;20378;-52
2022/05/05 13:23:03;;;;;;;23.63;18.43;;;;;;;;;;6269667;22;20478;-51
2022/05/05 13:25:29;;;;;;;26.17;18.30;;;;;;;;;;6236514;22;20366;-52
2022/05/05 13:27:56;;;;;;;25.60;17.00;;;;;;;;;;6266651;22;20848;-56
2022/05/05 13:30:22;;;;;;;23.73;19.03;;;;;;;;;;6267051;22;20391;-51
2022/05/05 13:32:48;;;;;;;25.30;17.93;;;;;;;;;;6268658;22;20426;-52
2022/05/05 13:35:22;;;;;;;24.50;19.33;;;;;;;;;;6256957;22;20377;-52
2022/05/05 13:37:49;;;;;;;20.47;16.63;;;;;;;;;;6264580;22;20391;-49
2022/05/05 13:40:15;;;;;;;20.93;16.60;;;;;;;;;;6247673;22;20354;-50
2022/05/05 13:42:41;;;;;;;24.80;20.00;;;;;;;;;;6254761;22;20931;-51
2022/05/05 13:45:07;;;;;;;20.60;17.47;;;;;;;;;;6263141;22;20370;-52
2022/05/05 13:47:34;;;;;;;21.33;17.50;;;;;;;;;;6250887;22;20393;-50
2022/05/05 13:50:00;;;;;;;19.07;16.73;;;;;;;;;;6270345;22;20918;-51
2022/05/05 13:52:26;;;;;;;22.50;17.57;;;;;;;;;;6248481;22;20385;-51
2022/05/05 13:54:52;;;;;;;22.97;17.77;;;;;;;;;;6266456;22;20396;-50
2022/05/05 13:57:18;;;;;;;23.00;16.53;;;;;;;;;;6254004;22;20859;-51
2022/05/05 13:59:44;;;;;;;21.83;18.93;;;;;;;;;;6270090;22;20826;-50
2022/05/05 14:02:10;;;;;;;18.70;16.73;;;;;;;;;;6264947;22;20420;-50
2022/05/05 14:04:37;;;;;;;18.60;15.73;;;;;;;;;;6269083;22;20424;-51
2022/05/05 14:07:03;;;;;;;19.73;17.43;;;;;;;;;;6260885;22;20443;-51
2022/05/05 14:12:17;;;;;;;22.03;18.27;;;;;;;;;;6250050;22;20380;-51
2022/05/05 14:14:43;;;;;;;22.27;17.83;;;;;;;;;;6273279;22;20895;-52
2022/05/05 14:17:12;;;;;;;23.67;19.10;;;;;;;;;;6249448;22;20473;-52
2022/05/05 14:19:40;;;;;;;21.17;18.53;;;;;;;;;;6270793;22;20374;-52
2022/05/05 14:22:07;;;;;;;25.10;19.80;;;;;;;;;;6239721;22;20432;-52
2022/05/05 14:24:35;;;;;;;23.37;20.10;;;;;;;;;;6264459;22;20393;-52
2022/05/05 14:27:02;;;;;;;23.17;20.70;;;;;;;;;;6262345;22;20366;-51
2022/05/05 14:29:28;;;;;;;22.37;19.63;;;;;;;;;;6263157;22;20421;-51
2022/05/05 14:31:54;;;;;;;20.83;18.70;;;;;;;;;;6270002;22;20374;-51
2022/05/05 14:34:20;;;;;;;23.87;20.10;;;;;;;;;;6269590;22;20396;-53
2022/05/05 14:36:49;;;;;;;21.90;18.77;;;;;;;;;;6264637;22;20392;-52
2022/05/05 14:39:15;;;;;;;23.70;18.67;;;;;;;;;;6258487;22;20365;-50
2022/05/05 14:41:41;;;;;;;24.70;20.03;;;;;;;;;;6272165;22;20372;-51
2022/05/05 14:44:07;;;;;;;23.87;20.33;;;;;;;;;;6267225;22;20172;-51
2022/05/05 14:46:34;;;;;;;23.27;20.50;;;;;;;;;;6273910;22;20393;-51
2022/05/05 14:49:00;;;;;;;25.17;19.30;;;;;;;;;;6268349;22;20373;-50
2022/05/05 14:51:26;;;;;;;24.23;19.53;;;;;;;;;;6274954;22;20987;-51
2022/05/05 14:53:53;;;;;;;28.00;19.50;;;;;;;;;;6263589;22;20435;-49
2022/05/05 14:56:20;;;;;;;29.40;20.67;;;;;;;;;;6270364;22;21065;-51
2022/05/05 14:58:46;;;;;;;25.73;17.70;;;;;;;;;;6252256;22;20378;-53
2022/05/05 15:01:13;;;;;;;25.57;19.50;;;;;;;;;;6271354;22;20405;-51
2022/05/05 15:03:39;;;;;;;24.00;19.63;;;;;;;;;;6265290;22;20429;-51
2022/05/05 15:06:05;;;;;;;28.97;20.80;;;;;;;;;;6273561;22;20372;-50
2022/05/05 15:08:31;;;;;;;27.77;21.90;;;;;;;;;;6268726;22;20445;-51
2022/05/05 15:10:57;;;;;;;32.50;23.17;;;;;;;;;;6250612;22;20373;-52
2022/05/05 15:13:23;;;;;;;29.90;22.30;;;;;;;;;;6269606;22;20401;-51
2022/05/05 15:15:49;;;;;;;34.03;24.17;;;;;;;;;;6266242;22;20358;-51
2022/05/05 15:18:15;;;;;;;26.47;21.33;;;;;;;;;;6250798;22;20835;-53
2022/05/05 15:20:41;;;;;;;33.60;23.00;;;;;;;;;;6274078;22;20394;-51
2022/05/05 15:23:23;;;;;;;31.13;22.83;;;;;;;;;;6258909;22;20425;-57
2022/05/05 15:25:50;;;;;;;32.80;24.43;;;;;;;;;;6240621;22;20403;-50
2022/05/05 15:28:16;;;;;;;26.73;20.60;;;;;;;;;;6268191;22;21064;-51
2022/05/05 15:30:42;;;;;;;26.10;20.40;;;;;;;;;;6263760;22;20404;-52
2022/05/05 15:33:08;;;;;;;33.73;24.97;;;;;;;;;;6269501;22;20182;-51
2022/05/05 15:35:34;;;;;;;31.87;22.37;;;;;;;;;;6266100;22;20385;-51
2022/05/05 15:38:01;;;;;;;27.47;23.97;;;;;;;;;;6247863;22;20361;-51
2022/05/05 15:40:27;;;;;;;29.23;21.90;;;;;;;;;;6267579;22;20783;-51
2022/05/05 15:42:53;;;;;;;31.80;23.43;;;;;;;;;;6252966;22;20998;-51
2022/05/05 15:45:19;;;;;;;31.27;23.50;;;;;;;;;;6271006;22;20362;-51
2022/05/05 15:47:45;;;;;;;28.70;23.87;;;;;;;;;;6263961;22;20749;-51
2022/05/05 15:50:11;;;;;;;30.93;23.53;;;;;;;;;;6269906;22;20366;-52
2022/05/05 15:52:38;;;;;;;35.60;27.77;;;;;;;;;;6262432;22;20837;-52
2022/05/05 15:55:05;;;;;;;36.57;25.20;;;;;;;;;;6266306;22;20370;-53
2022/05/05 15:57:31;;;;;;;34.33;22.67;;;;;;;;;;6243549;22;20389;-52
2022/05/05 16:00:00;;;;;;;32.70;22.73;;;;;;;;;;6260644;22;20411;-52
2022/05/05 16:02:26;;;;;;;31.20;23.30;;;;;;;;;;6266342;22;20460;-51
2022/05/05 16:04:52;;;;;;;34.47;24.87;;;;;;;;;;6263393;22;20450;-52